sensor_id;sensor_type;location;lat;lon;timestamp;P1;durP1;ratioP1;P2;durP2;ratioP2
42134;SDS011;28312;43.460;11.810;2024-03-02T00:03:33;2.83;;;2.10;;
42134;SDS011;28312;43.460;11.810;2024-03-02T00:07:36;3.65;;;2.72;;
42134;SDS011;28312;43.460;11.810;2024-03-02T00:11:40;5.70;;;1.88;;
42134;SDS011;28312;43.460;11.810;2024-03-02T00:15:48;3.53;;;2.60;;
42134;SDS011;28312;43.460;11.810;2024-03-02T00:19:56;2.55;;;1.92;;
42134;SDS011;28312;43.460;11.810;2024-03-02T00:23:59;3.10;;;2.15;;
42134;SDS011;28312;43.460;11.810;2024-03-02T00:28:13;2.13;;;1.20;;
42134;SDS011;28312;43.460;11.810;2024-03-02T00:32:25;2.53;;;1.75;;
42134;SDS011;28312;43.460;11.810;2024-03-02T00:36:31;7.43;;;2.30;;
42134;SDS011;28312;43.460;11.810;2024-03-02T00:40:35;4.68;;;2.42;;
42134;SDS011;28312;43.460;11.810;2024-03-02T00:44:38;3.58;;;2.55;;
42134;SDS011;28312;43.460;11.810;2024-03-02T00:48:47;2.78;;;1.85;;
42134;SDS011;28312;43.460;11.810;2024-03-02T00:52:55;2.95;;;1.45;;
42134;SDS011;28312;43.460;11.810;2024-03-02T00:56:58;3.15;;;2.30;;
42134;SDS011;28312;43.460;11.810;2024-03-02T01:01:02;3.75;;;2.40;;
42134;SDS011;28312;43.460;11.810;2024-03-02T01:05:07;2.58;;;2.10;;
42134;SDS011;28312;43.460;11.810;2024-03-02T01:09:11;3.28;;;2.13;;
42134;SDS011;28312;43.460;11.810;2024-03-02T01:13:16;2.90;;;2.33;;
42134;SDS011;28312;43.460;11.810;2024-03-02T01:17:19;3.42;;;2.20;;
42134;SDS011;28312;43.460;11.810;2024-03-02T01:21:23;4.65;;;2.65;;
42134;SDS011;28312;43.460;11.810;2024-03-02T01:25:27;2.55;;;1.83;;
42134;SDS011;28312;43.460;11.810;2024-03-02T01:29:30;2.25;;;1.75;;
42134;SDS011;28312;43.460;11.810;2024-03-02T01:33:34;3.08;;;1.80;;
42134;SDS011;28312;43.460;11.810;2024-03-02T01:37:37;2.28;;;1.67;;
42134;SDS011;28312;43.460;11.810;2024-03-02T01:41:41;3.97;;;2.33;;
42134;SDS011;28312;43.460;11.810;2024-03-02T01:45:45;3.88;;;2.67;;
42134;SDS011;28312;43.460;11.810;2024-03-02T01:49:49;2.55;;;1.67;;
42134;SDS011;28312;43.460;11.810;2024-03-02T01:53:53;5.72;;;2.90;;
42134;SDS011;28312;43.460;11.810;2024-03-02T01:57:56;2.70;;;2.35;;
42134;SDS011;28312;43.460;11.810;2024-03-02T02:02:01;3.03;;;2.15;;
42134;SDS011;28312;43.460;11.810;2024-03-02T02:06:05;3.45;;;2.17;;
42134;SDS011;28312;43.460;11.810;2024-03-02T02:10:09;3.20;;;2.28;;
42134;SDS011;28312;43.460;11.810;2024-03-02T02:14:13;2.95;;;2.30;;
42134;SDS011;28312;43.460;11.810;2024-03-02T02:18:17;2.97;;;1.85;;
42134;SDS011;28312;43.460;11.810;2024-03-02T02:22:20;3.50;;;2.20;;
42134;SDS011;28312;43.460;11.810;2024-03-02T02:26:24;3.10;;;2.35;;
42134;SDS011;28312;43.460;11.810;2024-03-02T02:30:29;2.70;;;2.05;;
42134;SDS011;28312;43.460;11.810;2024-03-02T02:34:33;2.97;;;2.28;;
42134;SDS011;28312;43.460;11.810;2024-03-02T02:38:41;3.60;;;2.08;;
42134;SDS011;28312;43.460;11.810;2024-03-02T02:42:47;2.80;;;2.00;;
42134;SDS011;28312;43.460;11.810;2024-03-02T02:46:53;4.45;;;2.15;;
42134;SDS011;28312;43.460;11.810;2024-03-02T02:50:57;2.65;;;1.73;;
42134;SDS011;28312;43.460;11.810;2024-03-02T02:55:01;2.40;;;1.90;;
42134;SDS011;28312;43.460;11.810;2024-03-02T02:59:08;2.67;;;1.92;;
42134;SDS011;28312;43.460;11.810;2024-03-02T03:03:11;3.03;;;2.03;;
42134;SDS011;28312;43.460;11.810;2024-03-02T03:07:15;2.95;;;1.83;;
42134;SDS011;28312;43.460;11.810;2024-03-02T03:11:19;3.83;;;2.20;;
42134;SDS011;28312;43.460;11.810;2024-03-02T03:15:23;2.25;;;1.73;;
42134;SDS011;28312;43.460;11.810;2024-03-02T03:19:26;2.33;;;1.55;;
42134;SDS011;28312;43.460;11.810;2024-03-02T03:23:30;2.40;;;1.90;;
42134;SDS011;28312;43.460;11.810;2024-03-02T03:27:34;2.50;;;1.60;;
42134;SDS011;28312;43.460;11.810;2024-03-02T03:31:37;3.22;;;2.00;;
42134;SDS011;28312;43.460;11.810;2024-03-02T03:35:41;5.13;;;2.33;;
42134;SDS011;28312;43.460;11.810;2024-03-02T03:39:44;3.78;;;2.30;;
42134;SDS011;28312;43.460;11.810;2024-03-02T03:43:48;2.40;;;1.70;;
42134;SDS011;28312;43.460;11.810;2024-03-02T03:47:52;3.45;;;2.38;;
42134;SDS011;28312;43.460;11.810;2024-03-02T03:51:56;2.67;;;2.22;;
42134;SDS011;28312;43.460;11.810;2024-03-02T03:56:00;2.92;;;2.40;;
42134;SDS011;28312;43.460;11.810;2024-03-02T04:00:03;3.53;;;2.33;;
42134;SDS011;28312;43.460;11.810;2024-03-02T04:04:14;4.22;;;2.50;;
42134;SDS011;28312;43.460;11.810;2024-03-02T04:08:17;4.03;;;2.45;;
42134;SDS011;28312;43.460;11.810;2024-03-02T04:12:21;7.97;;;3.67;;
42134;SDS011;28312;43.460;11.810;2024-03-02T04:16:24;3.78;;;2.40;;
42134;SDS011;28312;43.460;11.810;2024-03-02T04:20:29;4.03;;;2.90;;
42134;SDS011;28312;43.460;11.810;2024-03-02T04:24:32;3.03;;;2.38;;
42134;SDS011;28312;43.460;11.810;2024-03-02T04:28:36;3.85;;;2.00;;
42134;SDS011;28312;43.460;11.810;2024-03-02T04:32:40;3.67;;;2.65;;
42134;SDS011;28312;43.460;11.810;2024-03-02T04:36:44;3.40;;;2.30;;
42134;SDS011;28312;43.460;11.810;2024-03-02T04:40:48;3.53;;;2.83;;
42134;SDS011;28312;43.460;11.810;2024-03-02T04:44:52;4.00;;;2.78;;
42134;SDS011;28312;43.460;11.810;2024-03-02T04:48:55;3.58;;;2.35;;
42134;SDS011;28312;43.460;11.810;2024-03-02T04:53:00;4.97;;;2.83;;
42134;SDS011;28312;43.460;11.810;2024-03-02T04:57:03;3.67;;;2.15;;
42134;SDS011;28312;43.460;11.810;2024-03-02T05:01:07;3.58;;;2.42;;
42134;SDS011;28312;43.460;11.810;2024-03-02T05:05:11;5.15;;;2.90;;
42134;SDS011;28312;43.460;11.810;2024-03-02T05:09:14;3.40;;;2.65;;
42134;SDS011;28312;43.460;11.810;2024-03-02T05:13:18;2.97;;;2.30;;
42134;SDS011;28312;43.460;11.810;2024-03-02T05:17:23;3.40;;;2.47;;
42134;SDS011;28312;43.460;11.810;2024-03-02T05:21:28;3.20;;;2.45;;
42134;SDS011;28312;43.460;11.810;2024-03-02T05:25:32;4.20;;;3.00;;
42134;SDS011;28312;43.460;11.810;2024-03-02T05:29:35;3.70;;;2.60;;
42134;SDS011;28312;43.460;11.810;2024-03-02T05:33:39;4.25;;;2.47;;
42134;SDS011;28312;43.460;11.810;2024-03-02T05:37:42;5.03;;;2.50;;
42134;SDS011;28312;43.460;11.810;2024-03-02T05:41:46;3.60;;;2.83;;
42134;SDS011;28312;43.460;11.810;2024-03-02T05:45:49;3.55;;;2.25;;
42134;SDS011;28312;43.460;11.810;2024-03-02T05:49:53;4.10;;;1.75;;
42134;SDS011;28312;43.460;11.810;2024-03-02T05:53:56;2.85;;;2.17;;
42134;SDS011;28312;43.460;11.810;2024-03-02T05:58:00;3.20;;;2.65;;
42134;SDS011;28312;43.460;11.810;2024-03-02T06:02:10;3.35;;;2.25;;
42134;SDS011;28312;43.460;11.810;2024-03-02T06:06:13;4.47;;;3.00;;
42134;SDS011;28312;43.460;11.810;2024-03-02T06:10:17;3.42;;;2.67;;
42134;SDS011;28312;43.460;11.810;2024-03-02T06:14:21;3.30;;;2.70;;
42134;SDS011;28312;43.460;11.810;2024-03-02T06:18:24;4.07;;;2.47;;
42134;SDS011;28312;43.460;11.810;2024-03-02T06:22:28;3.05;;;2.53;;
42134;SDS011;28312;43.460;11.810;2024-03-02T06:26:32;2.88;;;2.20;;
42134;SDS011;28312;43.460;11.810;2024-03-02T06:30:35;3.63;;;2.92;;
42134;SDS011;28312;43.460;11.810;2024-03-02T06:34:39;3.22;;;2.40;;
42134;SDS011;28312;43.460;11.810;2024-03-02T06:38:42;2.60;;;2.08;;
42134;SDS011;28312;43.460;11.810;2024-03-02T06:42:46;2.80;;;2.25;;
42134;SDS011;28312;43.460;11.810;2024-03-02T06:46:50;3.05;;;2.00;;
42134;SDS011;28312;43.460;11.810;2024-03-02T06:50:53;3.88;;;2.60;;
42134;SDS011;28312;43.460;11.810;2024-03-02T06:54:58;3.20;;;2.53;;
42134;SDS011;28312;43.460;11.810;2024-03-02T06:59:02;4.50;;;2.80;;
42134;SDS011;28312;43.460;11.810;2024-03-02T07:03:05;3.83;;;2.70;;
42134;SDS011;28312;43.460;11.810;2024-03-02T07:07:09;3.45;;;2.65;;
42134;SDS011;28312;43.460;11.810;2024-03-02T07:11:13;3.78;;;2.50;;
42134;SDS011;28312;43.460;11.810;2024-03-02T07:15:16;4.38;;;2.97;;
42134;SDS011;28312;43.460;11.810;2024-03-02T07:19:38;4.28;;;3.10;;
42134;SDS011;28312;43.460;11.810;2024-03-02T07:23:42;5.00;;;3.75;;
42134;SDS011;28312;43.460;11.810;2024-03-02T07:27:48;4.78;;;3.20;;
42134;SDS011;28312;43.460;11.810;2024-03-02T07:31:51;4.97;;;4.38;;
42134;SDS011;28312;43.460;11.810;2024-03-02T07:35:55;4.60;;;3.15;;
42134;SDS011;28312;43.460;11.810;2024-03-02T07:40:01;3.33;;;2.40;;
42134;SDS011;28312;43.460;11.810;2024-03-02T07:44:05;5.60;;;4.72;;
42134;SDS011;28312;43.460;11.810;2024-03-02T07:48:09;5.60;;;3.90;;
42134;SDS011;28312;43.460;11.810;2024-03-02T07:52:13;3.38;;;2.58;;
42134;SDS011;28312;43.460;11.810;2024-03-02T07:56:16;3.90;;;2.70;;
42134;SDS011;28312;43.460;11.810;2024-03-02T08:00:25;3.40;;;2.20;;
42134;SDS011;28312;43.460;11.810;2024-03-02T08:04:30;3.17;;;2.25;;
42134;SDS011;28312;43.460;11.810;2024-03-02T08:08:33;2.92;;;2.35;;
42134;SDS011;28312;43.460;11.810;2024-03-02T08:12:37;3.42;;;2.10;;
42134;SDS011;28312;43.460;11.810;2024-03-02T08:16:42;3.20;;;2.00;;
42134;SDS011;28312;43.460;11.810;2024-03-02T08:20:47;3.60;;;2.00;;
42134;SDS011;28312;43.460;11.810;2024-03-02T08:24:51;2.70;;;2.00;;
42134;SDS011;28312;43.460;11.810;2024-03-02T08:28:55;2.40;;;1.73;;
42134;SDS011;28312;43.460;11.810;2024-03-02T08:32:59;2.45;;;1.33;;
42134;SDS011;28312;43.460;11.810;2024-03-02T08:37:03;1.70;;;1.00;;
42134;SDS011;28312;43.460;11.810;2024-03-02T08:41:07;2.25;;;1.40;;
42134;SDS011;28312;43.460;11.810;2024-03-02T08:45:12;2.25;;;1.30;;
42134;SDS011;28312;43.460;11.810;2024-03-02T08:49:16;1.90;;;1.27;;
42134;SDS011;28312;43.460;11.810;2024-03-02T08:53:19;2.60;;;1.17;;
42134;SDS011;28312;43.460;11.810;2024-03-02T08:57:23;2.10;;;1.40;;
42134;SDS011;28312;43.460;11.810;2024-03-02T09:01:26;3.42;;;0.88;;
42134;SDS011;28312;43.460;11.810;2024-03-02T09:05:30;1.27;;;1.00;;
42134;SDS011;28312;43.460;11.810;2024-03-02T09:09:34;2.83;;;1.30;;
42134;SDS011;28312;43.460;11.810;2024-03-02T09:13:37;1.75;;;0.95;;
42134;SDS011;28312;43.460;11.810;2024-03-02T09:17:42;2.38;;;1.42;;
42134;SDS011;28312;43.460;11.810;2024-03-02T09:21:45;2.00;;;1.23;;
42134;SDS011;28312;43.460;11.810;2024-03-02T09:25:49;3.95;;;1.60;;
42134;SDS011;28312;43.460;11.810;2024-03-02T09:29:52;3.00;;;1.40;;
42134;SDS011;28312;43.460;11.810;2024-03-02T09:33:56;1.77;;;1.10;;
42134;SDS011;28312;43.460;11.810;2024-03-02T09:37:59;4.00;;;2.03;;
42134;SDS011;28312;43.460;11.810;2024-03-02T09:42:03;3.53;;;1.95;;
42134;SDS011;28312;43.460;11.810;2024-03-02T09:46:10;4.40;;;2.70;;
42134;SDS011;28312;43.460;11.810;2024-03-02T09:50:14;3.60;;;2.08;;
42134;SDS011;28312;43.460;11.810;2024-03-02T09:54:18;2.85;;;1.88;;
42134;SDS011;28312;43.460;11.810;2024-03-02T09:58:25;2.85;;;1.48;;
42134;SDS011;28312;43.460;11.810;2024-03-02T10:02:28;1.88;;;1.10;;
42134;SDS011;28312;43.460;11.810;2024-03-02T10:06:32;3.17;;;1.52;;
42134;SDS011;28312;43.460;11.810;2024-03-02T10:10:39;2.90;;;1.30;;
42134;SDS011;28312;43.460;11.810;2024-03-02T10:14:44;1.75;;;1.00;;
42134;SDS011;28312;43.460;11.810;2024-03-02T10:18:48;2.20;;;1.50;;
42134;SDS011;28312;43.460;11.810;2024-03-02T10:22:52;5.30;;;1.27;;
42134;SDS011;28312;43.460;11.810;2024-03-02T10:26:55;3.72;;;1.63;;
42134;SDS011;28312;43.460;11.810;2024-03-02T10:30:59;3.22;;;1.70;;
42134;SDS011;28312;43.460;11.810;2024-03-02T10:35:03;3.50;;;1.15;;
42134;SDS011;28312;43.460;11.810;2024-03-02T10:39:08;1.40;;;0.90;;
42134;SDS011;28312;43.460;11.810;2024-03-02T10:43:12;4.55;;;1.00;;
42134;SDS011;28312;43.460;11.810;2024-03-02T10:47:16;2.13;;;1.25;;
42134;SDS011;28312;43.460;11.810;2024-03-02T10:51:22;1.00;;;0.63;;
42134;SDS011;28312;43.460;11.810;2024-03-02T10:55:26;1.02;;;0.70;;
42134;SDS011;28312;43.460;11.810;2024-03-02T10:59:34;1.63;;;1.02;;
42134;SDS011;28312;43.460;11.810;2024-03-02T11:03:41;1.83;;;0.77;;
42134;SDS011;28312;43.460;11.810;2024-03-02T11:07:47;1.73;;;1.17;;
42134;SDS011;28312;43.460;11.810;2024-03-02T11:11:54;5.45;;;1.00;;
42134;SDS011;28312;43.460;11.810;2024-03-02T11:16:14;3.22;;;1.02;;
42134;SDS011;28312;43.460;11.810;2024-03-02T11:20:24;2.00;;;0.73;;
42134;SDS011;28312;43.460;11.810;2024-03-02T11:24:29;2.00;;;0.70;;
42134;SDS011;28312;43.460;11.810;2024-03-02T11:28:40;6.85;;;1.15;;
42134;SDS011;28312;43.460;11.810;2024-03-02T11:32:43;1.75;;;0.93;;
42134;SDS011;28312;43.460;11.810;2024-03-02T11:36:58;0.98;;;0.75;;
42134;SDS011;28312;43.460;11.810;2024-03-02T11:41:07;3.55;;;1.33;;
42134;SDS011;28312;43.460;11.810;2024-03-02T11:45:17;3.72;;;1.85;;
42134;SDS011;28312;43.460;11.810;2024-03-02T11:49:38;3.40;;;1.02;;
42134;SDS011;28312;43.460;11.810;2024-03-02T11:53:45;2.53;;;1.02;;
42134;SDS011;28312;43.460;11.810;2024-03-02T11:57:50;3.45;;;1.30;;
42134;SDS011;28312;43.460;11.810;2024-03-02T12:01:58;2.10;;;0.98;;
42134;SDS011;28312;43.460;11.810;2024-03-02T12:06:02;1.60;;;1.05;;
42134;SDS011;28312;43.460;11.810;2024-03-02T12:10:09;1.67;;;0.90;;
42134;SDS011;28312;43.460;11.810;2024-03-02T12:14:13;5.05;;;1.00;;
42134;SDS011;28312;43.460;11.810;2024-03-02T12:18:16;2.72;;;0.80;;
42134;SDS011;28312;43.460;11.810;2024-03-02T12:22:21;2.17;;;1.00;;
42134;SDS011;28312;43.460;11.810;2024-03-02T12:26:24;3.95;;;1.10;;
42134;SDS011;28312;43.460;11.810;2024-03-02T12:30:32;1.13;;;0.70;;
42134;SDS011;28312;43.460;11.810;2024-03-02T12:34:38;1.85;;;0.70;;
42134;SDS011;28312;43.460;11.810;2024-03-02T12:38:45;1.85;;;0.90;;
42134;SDS011;28312;43.460;11.810;2024-03-02T12:42:53;3.90;;;0.80;;
42134;SDS011;28312;43.460;11.810;2024-03-02T12:46:56;1.98;;;0.65;;
42134;SDS011;28312;43.460;11.810;2024-03-02T12:51:03;1.38;;;0.70;;
42134;SDS011;28312;43.460;11.810;2024-03-02T12:55:07;3.75;;;0.77;;
42134;SDS011;28312;43.460;11.810;2024-03-02T12:59:18;3.72;;;0.93;;
42134;SDS011;28312;43.460;11.810;2024-03-02T13:03:24;3.08;;;0.95;;
42134;SDS011;28312;43.460;11.810;2024-03-02T13:07:28;3.05;;;1.20;;
42134;SDS011;28312;43.460;11.810;2024-03-02T13:11:32;2.08;;;0.68;;
42134;SDS011;28312;43.460;11.810;2024-03-02T13:15:36;0.85;;;0.57;;
42134;SDS011;28312;43.460;11.810;2024-03-02T13:19:50;6.43;;;0.82;;
42134;SDS011;28312;43.460;11.810;2024-03-02T13:24:03;1.33;;;0.88;;
42134;SDS011;28312;43.460;11.810;2024-03-02T13:28:07;3.67;;;0.88;;
42134;SDS011;28312;43.460;11.810;2024-03-02T13:32:11;1.33;;;0.50;;
42134;SDS011;28312;43.460;11.810;2024-03-02T13:36:15;1.55;;;0.90;;
42134;SDS011;28312;43.460;11.810;2024-03-02T13:40:23;2.15;;;0.85;;
42134;SDS011;28312;43.460;11.810;2024-03-02T13:44:28;1.63;;;0.70;;
42134;SDS011;28312;43.460;11.810;2024-03-02T13:48:31;1.40;;;0.70;;
42134;SDS011;28312;43.460;11.810;2024-03-02T13:52:35;0.93;;;0.60;;
42134;SDS011;28312;43.460;11.810;2024-03-02T13:56:39;2.97;;;1.23;;
42134;SDS011;28312;43.460;11.810;2024-03-02T14:00:43;0.95;;;0.50;;
42134;SDS011;28312;43.460;11.810;2024-03-02T14:04:48;2.97;;;0.80;;
42134;SDS011;28312;43.460;11.810;2024-03-02T14:08:54;1.83;;;0.93;;
42134;SDS011;28312;43.460;11.810;2024-03-02T14:13:00;2.60;;;1.23;;
42134;SDS011;28312;43.460;11.810;2024-03-02T14:17:04;2.03;;;0.93;;
42134;SDS011;28312;43.460;11.810;2024-03-02T14:21:10;2.40;;;1.10;;
42134;SDS011;28312;43.460;11.810;2024-03-02T14:25:14;1.98;;;1.05;;
42134;SDS011;28312;43.460;11.810;2024-03-02T14:29:17;5.82;;;1.10;;
42134;SDS011;28312;43.460;11.810;2024-03-02T14:33:21;2.70;;;0.70;;
42134;SDS011;28312;43.460;11.810;2024-03-02T14:37:25;3.38;;;1.20;;
42134;SDS011;28312;43.460;11.810;2024-03-02T14:41:28;1.70;;;0.90;;
42134;SDS011;28312;43.460;11.810;2024-03-02T14:45:32;1.58;;;0.70;;
42134;SDS011;28312;43.460;11.810;2024-03-02T14:49:36;1.88;;;1.10;;
42134;SDS011;28312;43.460;11.810;2024-03-02T14:53:43;1.05;;;0.50;;
42134;SDS011;28312;43.460;11.810;2024-03-02T14:57:46;3.05;;;1.02;;
42134;SDS011;28312;43.460;11.810;2024-03-02T15:01:50;1.98;;;0.68;;
42134;SDS011;28312;43.460;11.810;2024-03-02T15:05:53;2.90;;;0.73;;
42134;SDS011;28312;43.460;11.810;2024-03-02T15:09:57;3.15;;;0.88;;
42134;SDS011;28312;43.460;11.810;2024-03-02T15:14:01;1.17;;;0.45;;
42134;SDS011;28312;43.460;11.810;2024-03-02T15:18:05;1.10;;;0.50;;
42134;SDS011;28312;43.460;11.810;2024-03-02T15:22:09;1.83;;;0.70;;
42134;SDS011;28312;43.460;11.810;2024-03-02T15:26:13;1.38;;;0.60;;
42134;SDS011;28312;43.460;11.810;2024-03-02T15:30:16;2.38;;;0.73;;
42134;SDS011;28312;43.460;11.810;2024-03-02T15:34:20;1.85;;;0.88;;
42134;SDS011;28312;43.460;11.810;2024-03-02T15:38:24;3.15;;;0.90;;
42134;SDS011;28312;43.460;11.810;2024-03-02T15:42:36;5.25;;;0.73;;
42134;SDS011;28312;43.460;11.810;2024-03-02T15:46:39;1.35;;;0.90;;
42134;SDS011;28312;43.460;11.810;2024-03-02T15:50:43;1.60;;;0.80;;
42134;SDS011;28312;43.460;11.810;2024-03-02T15:54:47;1.98;;;0.77;;
42134;SDS011;28312;43.460;11.810;2024-03-02T15:58:53;2.50;;;0.75;;
42134;SDS011;28312;43.460;11.810;2024-03-02T16:02:57;1.65;;;0.65;;
42134;SDS011;28312;43.460;11.810;2024-03-02T16:07:02;1.55;;;0.70;;
42134;SDS011;28312;43.460;11.810;2024-03-02T16:11:06;1.88;;;0.75;;
42134;SDS011;28312;43.460;11.810;2024-03-02T16:15:09;2.25;;;0.95;;
42134;SDS011;28312;43.460;11.810;2024-03-02T16:19:13;2.03;;;0.98;;
42134;SDS011;28312;43.460;11.810;2024-03-02T16:23:30;2.28;;;1.20;;
42134;SDS011;28312;43.460;11.810;2024-03-02T16:27:34;5.68;;;1.08;;
42134;SDS011;28312;43.460;11.810;2024-03-02T16:31:37;4.07;;;1.50;;
42134;SDS011;28312;43.460;11.810;2024-03-02T16:35:41;6.90;;;4.00;;
42134;SDS011;28312;43.460;11.810;2024-03-02T16:39:45;5.55;;;3.20;;
42134;SDS011;28312;43.460;11.810;2024-03-02T16:43:49;5.57;;;1.77;;
42134;SDS011;28312;43.460;11.810;2024-03-02T16:47:52;3.50;;;1.83;;
42134;SDS011;28312;43.460;11.810;2024-03-02T16:51:56;3.67;;;1.65;;
42134;SDS011;28312;43.460;11.810;2024-03-02T16:56:00;3.65;;;1.58;;
42134;SDS011;28312;43.460;11.810;2024-03-02T17:00:05;4.18;;;1.50;;
42134;SDS011;28312;43.460;11.810;2024-03-02T17:04:10;2.88;;;1.27;;
42134;SDS011;28312;43.460;11.810;2024-03-02T17:08:14;5.13;;;1.45;;
42134;SDS011;28312;43.460;11.810;2024-03-02T17:12:18;3.78;;;1.67;;
42134;SDS011;28312;43.460;11.810;2024-03-02T17:16:21;3.05;;;1.00;;
42134;SDS011;28312;43.460;11.810;2024-03-02T17:20:25;2.33;;;1.02;;
42134;SDS011;28312;43.460;11.810;2024-03-02T17:24:30;1.42;;;0.90;;
42134;SDS011;28312;43.460;11.810;2024-03-02T17:28:34;1.77;;;1.08;;
42134;SDS011;28312;43.460;11.810;2024-03-02T17:32:38;2.78;;;1.27;;
42134;SDS011;28312;43.460;11.810;2024-03-02T17:36:41;2.75;;;0.90;;
42134;SDS011;28312;43.460;11.810;2024-03-02T17:40:45;3.05;;;0.95;;
42134;SDS011;28312;43.460;11.810;2024-03-02T17:44:49;3.03;;;1.80;;
42134;SDS011;28312;43.460;11.810;2024-03-02T17:48:52;6.53;;;3.70;;
42134;SDS011;28312;43.460;11.810;2024-03-02T17:52:57;7.75;;;5.40;;
42134;SDS011;28312;43.460;11.810;2024-03-02T17:57:01;7.18;;;5.32;;
42134;SDS011;28312;43.460;11.810;2024-03-02T18:01:05;5.35;;;3.58;;
42134;SDS011;28312;43.460;11.810;2024-03-02T18:05:09;4.65;;;3.42;;
42134;SDS011;28312;43.460;11.810;2024-03-02T18:09:13;5.38;;;3.97;;
42134;SDS011;28312;43.460;11.810;2024-03-02T18:13:16;11.75;;;7.55;;
42134;SDS011;28312;43.460;11.810;2024-03-02T18:17:20;11.05;;;5.00;;
42134;SDS011;28312;43.460;11.810;2024-03-02T18:21:24;11.40;;;6.43;;
42134;SDS011;28312;43.460;11.810;2024-03-02T18:25:27;5.50;;;3.92;;
42134;SDS011;28312;43.460;11.810;2024-03-02T18:29:31;9.45;;;4.63;;
42134;SDS011;28312;43.460;11.810;2024-03-02T18:38:19;7.93;;;3.78;;
42134;SDS011;28312;43.460;11.810;2024-03-02T18:42:23;4.95;;;3.17;;
42134;SDS011;28312;43.460;11.810;2024-03-02T18:46:28;6.45;;;3.70;;
42134;SDS011;28312;43.460;11.810;2024-03-02T18:50:32;5.47;;;3.25;;
42134;SDS011;28312;43.460;11.810;2024-03-02T18:54:35;9.23;;;3.70;;
42134;SDS011;28312;43.460;11.810;2024-03-02T18:58:39;8.40;;;4.95;;
42134;SDS011;28312;43.460;11.810;2024-03-02T19:02:42;7.05;;;4.43;;
42134;SDS011;28312;43.460;11.810;2024-03-02T19:06:46;8.82;;;4.18;;
42134;SDS011;28312;43.460;11.810;2024-03-02T19:10:50;8.35;;;4.97;;
42134;SDS011;28312;43.460;11.810;2024-03-02T19:14:54;5.75;;;3.33;;
42134;SDS011;28312;43.460;11.810;2024-03-02T19:18:58;4.78;;;2.75;;
42134;SDS011;28312;43.460;11.810;2024-03-02T19:23:01;10.60;;;4.95;;
42134;SDS011;28312;43.460;11.810;2024-03-02T19:27:05;7.22;;;4.95;;
42134;SDS011;28312;43.460;11.810;2024-03-02T19:31:09;6.32;;;2.80;;
42134;SDS011;28312;43.460;11.810;2024-03-02T19:35:12;6.13;;;4.20;;
42134;SDS011;28312;43.460;11.810;2024-03-02T19:39:16;4.60;;;3.45;;
42134;SDS011;28312;43.460;11.810;2024-03-02T19:43:28;6.07;;;4.25;;
42134;SDS011;28312;43.460;11.810;2024-03-02T19:47:32;4.82;;;3.78;;
42134;SDS011;28312;43.460;11.810;2024-03-02T19:51:36;10.32;;;5.40;;
42134;SDS011;28312;43.460;11.810;2024-03-02T19:55:39;5.93;;;4.47;;
42134;SDS011;28312;43.460;11.810;2024-03-02T19:59:45;7.20;;;5.68;;
42134;SDS011;28312;43.460;11.810;2024-03-02T20:03:49;9.05;;;6.38;;
42134;SDS011;28312;43.460;11.810;2024-03-02T20:07:53;10.68;;;6.00;;
42134;SDS011;28312;43.460;11.810;2024-03-02T20:11:56;11.38;;;6.72;;
42134;SDS011;28312;43.460;11.810;2024-03-02T20:16:07;7.10;;;5.50;;
42134;SDS011;28312;43.460;11.810;2024-03-02T20:20:12;19.98;;;7.15;;
42134;SDS011;28312;43.460;11.810;2024-03-02T20:24:16;8.50;;;5.28;;
42134;SDS011;28312;43.460;11.810;2024-03-02T20:28:20;9.88;;;6.97;;
42134;SDS011;28312;43.460;11.810;2024-03-02T20:32:24;10.05;;;6.38;;
42134;SDS011;28312;43.460;11.810;2024-03-02T20:36:28;14.32;;;7.75;;
42134;SDS011;28312;43.460;11.810;2024-03-02T20:40:31;12.23;;;9.05;;
42134;SDS011;28312;43.460;11.810;2024-03-02T20:44:36;9.15;;;6.43;;
42134;SDS011;28312;43.460;11.810;2024-03-02T20:48:40;9.70;;;6.90;;
42134;SDS011;28312;43.460;11.810;2024-03-02T20:52:44;6.90;;;5.40;;
42134;SDS011;28312;43.460;11.810;2024-03-02T20:56:50;14.68;;;9.13;;
42134;SDS011;28312;43.460;11.810;2024-03-02T21:00:55;24.55;;;15.38;;
42134;SDS011;28312;43.460;11.810;2024-03-02T21:04:58;10.15;;;7.35;;
42134;SDS011;28312;43.460;11.810;2024-03-02T21:09:02;12.27;;;7.95;;
42134;SDS011;28312;43.460;11.810;2024-03-02T21:13:06;9.10;;;8.00;;
42134;SDS011;28312;43.460;11.810;2024-03-02T21:17:09;8.80;;;5.47;;
42134;SDS011;28312;43.460;11.810;2024-03-02T21:21:13;9.77;;;8.52;;
42134;SDS011;28312;43.460;11.810;2024-03-02T21:25:16;9.27;;;7.28;;
42134;SDS011;28312;43.460;11.810;2024-03-02T21:29:23;9.18;;;6.72;;
42134;SDS011;28312;43.460;11.810;2024-03-02T21:33:27;6.68;;;5.55;;
42134;SDS011;28312;43.460;11.810;2024-03-02T21:37:30;10.95;;;7.65;;
42134;SDS011;28312;43.460;11.810;2024-03-02T21:41:34;12.35;;;8.63;;
42134;SDS011;28312;43.460;11.810;2024-03-02T21:45:38;19.35;;;9.75;;
42134;SDS011;28312;43.460;11.810;2024-03-02T21:49:42;8.07;;;4.85;;
42134;SDS011;28312;43.460;11.810;2024-03-02T21:53:46;9.50;;;7.07;;
42134;SDS011;28312;43.460;11.810;2024-03-02T21:57:50;8.77;;;6.78;;
42134;SDS011;28312;43.460;11.810;2024-03-02T22:01:56;7.90;;;5.53;;
42134;SDS011;28312;43.460;11.810;2024-03-02T22:06:00;5.75;;;4.45;;
42134;SDS011;28312;43.460;11.810;2024-03-02T22:10:05;5.07;;;4.57;;
42134;SDS011;28312;43.460;11.810;2024-03-02T22:14:09;6.75;;;5.55;;
42134;SDS011;28312;43.460;11.810;2024-03-02T22:18:12;7.35;;;5.65;;
42134;SDS011;28312;43.460;11.810;2024-03-02T22:22:16;8.27;;;6.47;;
42134;SDS011;28312;43.460;11.810;2024-03-02T22:26:19;5.03;;;3.72;;
42134;SDS011;28312;43.460;11.810;2024-03-02T22:30:23;6.00;;;4.53;;
42134;SDS011;28312;43.460;11.810;2024-03-02T22:34:26;12.75;;;10.35;;
42134;SDS011;28312;43.460;11.810;2024-03-02T22:38:30;13.80;;;10.75;;
42134;SDS011;28312;43.460;11.810;2024-03-02T22:42:34;8.18;;;6.22;;
42134;SDS011;28312;43.460;11.810;2024-03-02T22:46:37;7.35;;;5.88;;
42134;SDS011;28312;43.460;11.810;2024-03-02T22:50:41;5.97;;;4.28;;
42134;SDS011;28312;43.460;11.810;2024-03-02T22:54:44;7.53;;;5.75;;
42134;SDS011;28312;43.460;11.810;2024-03-02T22:58:48;6.63;;;4.75;;
42134;SDS011;28312;43.460;11.810;2024-03-02T23:02:52;6.50;;;5.30;;
42134;SDS011;28312;43.460;11.810;2024-03-02T23:06:56;6.43;;;5.78;;
42134;SDS011;28312;43.460;11.810;2024-03-02T23:10:59;5.53;;;4.32;;
42134;SDS011;28312;43.460;11.810;2024-03-02T23:15:04;6.28;;;4.63;;
42134;SDS011;28312;43.460;11.810;2024-03-02T23:19:11;7.80;;;6.93;;
42134;SDS011;28312;43.460;11.810;2024-03-02T23:23:23;5.28;;;3.30;;
42134;SDS011;28312;43.460;11.810;2024-03-02T23:27:27;10.00;;;6.22;;
42134;SDS011;28312;43.460;11.810;2024-03-02T23:31:30;12.15;;;5.15;;
42134;SDS011;28312;43.460;11.810;2024-03-02T23:35:33;10.98;;;5.43;;
42134;SDS011;28312;43.460;11.810;2024-03-02T23:39:37;15.25;;;5.03;;
42134;SDS011;28312;43.460;11.810;2024-03-02T23:44:00;8.85;;;4.78;;
42134;SDS011;28312;43.460;11.810;2024-03-02T23:48:04;20.33;;;5.03;;
42134;SDS011;28312;43.460;11.810;2024-03-02T23:52:13;6.68;;;3.95;;
42134;SDS011;28312;43.460;11.810;2024-03-02T23:56:16;4.75;;;3.80;;
